KPIB/PIB METAR and TAF weather

Enter ICAO airport designator
Station Type Date Time Source
KPIB METAR 2020/01/18 23:56 UTC NOAA

KPIB 182356Z AUTO 00000KT 8SM OVC080 19/19 A3012 RMK AO2 LTG DSNT S SLP200 60001 T01940194 10211 20194 53001


Station Type Date Time Source
KPIB Decoded METAR 2020/01/18 23:56 UTC NOAA

Hattiesburg/Laurel, Hattiesburg-Laurel Regional Airport, MS, United States (KPIB) 31-28N 089-20W
Jan 18, 2020 - 06:56 PM EST / 2020.01.18 2356 UTC
Wind: Calm:0
Visibility: 8 mile(s):0
Sky conditions: overcast
Weather: Lightning observed
Temperature: 66.9 F (19.4 C)
Dew Point: 66.9 F (19.4 C)
Relative Humidity: 100%
Pressure (altimeter): 30.12 in. Hg (1019 hPa)
Pressure tendency: 0.00 inches (0.1 hPa) higher than three hours ago
ob: KPIB 182356Z AUTO 00000KT 8SM OVC080 19/19 A3012 RMK AO2 LTG DSNT S SLP200 60001 T01940194 10211 20194 53001
cycle: 0

Station Type Date Time Source
KPIB TAF 2020/01/18 18:36 UTC NOAA

TAF KPIB 181734Z 1818/1918 19009KT P6SM VCSH OVC015
FM190100 32009KT P6SM VCSH OVC025
FM190600 36011KT P6SM BKN035

Example: see airport list